0VG

Lee County Airport

Jonesville, Virginia, USA
METAR K0VG 251735Z AUTO 30004KT 1 3/4SM -RA BKN020 14/13 A2995 RMK AO2 P0001
Observed Flight Rules
Apr-25 @ 17:35 UTC (36 minutes ago) Instrument Flight Rules
Wind Visibility Clouds Conditions
300° at 4 knots 1 3/4 miles
  • Broken at 2,000' AGL
  • Light Rain
Temperatures Readings Precipitation
Current 14°C / 57°F
Dewpoint 13°C / 55°F
Humidity 94%
Altimeter 29.95" Hg
Pressure 1014 hPa
Elevation 430
Current Rain 0.01
METAR K0VG 251735Z AUTO 30004KT 1 3/4SM -RA BKN020 14/13 A2995 RMK AO2 P0001
Observed Flight Rules
Apr-25 @ 17:35 UTC
(36 minutes ago)
IFR
Wind Visibility
300° at 4 knots 1 3/4 miles
Clouds
  • Broken at 2,000' AGL
Conditions
  • Light Rain
Temperature Dewpoint
14°C / 57°F 13°C / 55°F
Humidity Altimeter Pressure
94% 29.95" Hg 1014 hPa
Current Rain
0.01